createdAt,value
2022-11-13T16:23:17.702Z,17.00
2022-11-13T16:26:25.463Z,15.40
2022-11-13T16:29:31.090Z,14.17
2022-11-13T16:32:36.520Z,14.80
2022-11-13T16:35:42.064Z,13.30
2022-11-13T16:38:49.110Z,14.40
2022-11-13T16:41:54.430Z,11.63
2022-11-13T16:45:00.148Z,10.33
2022-11-13T16:48:05.745Z,10.37
2022-11-13T16:51:20.078Z,9.30
2022-11-13T16:54:26.114Z,9.60
2022-11-13T16:57:31.735Z,9.27
2022-11-13T17:00:37.051Z,9.53
2022-11-13T17:03:42.399Z,8.50
2022-11-13T17:06:48.081Z,8.27
2022-11-13T17:10:16.776Z,7.57
2022-11-13T17:13:19.559Z,8.23
2022-11-13T17:16:26.806Z,10.23
2022-11-13T17:19:32.393Z,8.27
2022-11-13T17:22:37.676Z,8.80
2022-11-13T17:25:43.820Z,10.07
2022-11-13T17:28:50.163Z,10.93
2022-11-13T17:31:55.716Z,11.50
2022-11-13T17:35:01.395Z,14.17
2022-11-13T17:38:06.960Z,13.80
2022-11-13T17:41:14.455Z,9.83
2022-11-13T17:44:20.061Z,9.67
2022-11-13T17:47:25.480Z,9.00
2022-11-13T17:50:31.114Z,11.03
2022-11-13T17:53:36.754Z,9.73
2022-11-13T17:56:42.733Z,8.63
2022-11-13T17:59:48.234Z,11.90
2022-11-13T18:02:55.367Z,9.23
2022-11-13T18:06:03.664Z,9.40
2022-11-13T18:09:09.648Z,10.03
2022-11-13T18:12:15.833Z,9.40
2022-11-13T18:15:21.475Z,9.83
2022-11-13T18:18:26.799Z,9.40
2022-11-13T18:21:33.707Z,7.93
2022-11-13T18:24:39.676Z,7.83
2022-11-13T18:27:45.941Z,8.70
2022-11-13T18:30:56.240Z,9.37
2022-11-13T18:34:04.382Z,9.00
2022-11-13T18:37:09.911Z,11.30
2022-11-13T18:40:15.925Z,8.27
2022-11-13T18:43:22.043Z,9.97
2022-11-13T18:46:27.776Z,9.20
2022-11-13T18:49:33.342Z,9.20
2022-11-13T18:52:39.071Z,8.80
2022-11-13T18:55:45.044Z,12.00
2022-11-13T18:58:52.786Z,10.63
2022-11-13T19:01:58.210Z,13.07
2022-11-13T19:05:04.188Z,17.10
2022-11-13T19:08:09.647Z,21.47
2022-11-13T19:11:17.707Z,16.47
2022-11-13T19:14:24.227Z,12.90
2022-11-13T19:17:29.823Z,11.83
2022-11-13T19:20:38.452Z,9.93
2022-11-13T19:23:44.394Z,10.50
2022-11-13T19:26:49.980Z,10.03
2022-11-13T19:29:56.003Z,8.83
2022-11-13T19:33:01.328Z,9.03
2022-11-13T19:36:08.917Z,8.63
2022-11-13T19:39:15.361Z,8.43
2022-11-13T19:42:21.125Z,8.77
2022-11-13T19:45:28.680Z,8.47
2022-11-13T19:48:35.294Z,8.67
2022-11-13T19:51:41.239Z,8.40
2022-11-13T19:54:46.885Z,8.70
2022-11-13T19:57:52.513Z,9.33
2022-11-13T20:00:58.998Z,8.83
2022-11-13T20:04:05.464Z,9.90
2022-11-13T20:07:11.399Z,10.00
2022-11-13T20:10:17.329Z,9.23
2022-11-13T20:13:22.699Z,9.60
2022-11-13T20:16:29.391Z,10.50
2022-11-13T20:19:34.730Z,13.13
2022-11-13T20:22:40.475Z,11.77
2022-11-13T20:25:52.216Z,17.20
2022-11-13T20:28:57.961Z,25.87
2022-11-13T20:32:04.201Z,19.13
2022-11-13T20:35:09.406Z,9.50
2022-11-13T20:38:15.440Z,11.10
2022-11-13T20:41:23.109Z,14.10
2022-11-13T20:44:28.449Z,15.87
2022-11-13T20:47:34.998Z,17.40
2022-11-13T20:50:40.792Z,19.00
2022-11-13T20:53:46.582Z,17.57
2022-11-13T20:56:52.125Z,19.90
2022-11-13T20:59:58.033Z,18.47
2022-11-13T21:03:04.171Z,18.00
2022-11-13T21:06:15.289Z,13.43
2022-11-13T21:09:20.641Z,13.17
2022-11-13T21:12:25.736Z,14.87
2022-11-13T21:15:33.039Z,18.40
2022-11-13T21:18:39.194Z,17.73
2022-11-13T21:21:50.929Z,9.07
2022-11-13T21:24:56.760Z,9.70
2022-11-13T21:28:03.105Z,8.77
2022-11-13T21:31:12.677Z,9.00
2022-11-13T21:34:18.761Z,6.60
2022-11-13T21:37:33.759Z,7.53
2022-11-13T21:40:39.045Z,7.07
2022-11-13T21:43:44.694Z,6.83
2022-11-13T21:46:49.966Z,6.50
2022-11-13T21:49:55.751Z,6.40
2022-11-13T21:53:00.677Z,9.17
2022-11-13T21:56:10.079Z,6.37
2022-11-13T21:59:18.059Z,6.30
2022-11-13T22:02:50.203Z,10.23
2022-11-13T22:06:19.431Z,10.40
2022-11-13T22:09:25.402Z,9.10
2022-11-13T22:12:30.646Z,9.67
2022-11-13T22:15:36.139Z,11.37
2022-11-13T22:18:41.844Z,8.83
2022-11-13T22:21:48.267Z,11.50
2022-11-13T22:24:53.648Z,8.80
2022-11-13T22:27:59.336Z,8.53
2022-11-13T22:31:06.054Z,7.77
2022-11-13T22:34:11.615Z,9.10
2022-11-13T22:37:17.286Z,7.90
2022-11-13T22:40:22.691Z,7.37
2022-11-13T22:43:32.151Z,6.93
2022-11-13T22:46:37.431Z,6.90
2022-11-13T22:49:43.042Z,6.70
2022-11-13T22:52:51.091Z,6.60
2022-11-13T22:56:00.999Z,7.37
2022-11-13T22:59:09.151Z,8.40
2022-11-13T23:02:14.605Z,9.00
2022-11-13T23:05:19.965Z,8.93
2022-11-13T23:08:37.810Z,9.40
2022-11-13T23:11:43.250Z,9.00
2022-11-13T23:14:48.412Z,8.63
2022-11-13T23:17:54.060Z,8.17
2022-11-13T23:20:59.273Z,7.13
2022-11-13T23:24:06.183Z,9.20
2022-11-13T23:27:12.193Z,7.03
2022-11-13T23:30:17.779Z,8.23
2022-11-13T23:33:23.319Z,6.50
2022-11-13T23:36:29.747Z,5.80
2022-11-13T23:39:36.187Z,6.57
2022-11-13T23:42:54.635Z,6.83
2022-11-13T23:46:01.316Z,7.60
2022-11-13T23:49:06.877Z,6.50
2022-11-13T23:52:12.319Z,6.37
2022-11-13T23:55:20.376Z,6.07
2022-11-13T23:58:26.251Z,6.17
